createdAt,value
2023-06-02T00:00:08.865Z,15.61
2023-06-02T00:03:12.308Z,15.51
2023-06-02T00:06:19.445Z,15.46
2023-06-02T00:09:21.950Z,15.23
2023-06-02T00:12:24.229Z,15.19
2023-06-02T00:15:26.505Z,15.21
2023-06-02T00:18:29.148Z,15.24
2023-06-02T00:21:31.500Z,15.11
2023-06-02T00:24:33.811Z,15.08
2023-06-02T00:27:36.125Z,15.10
2023-06-02T00:30:38.511Z,15.13
2023-06-02T00:33:42.712Z,15.21
2023-06-02T00:36:44.973Z,15.12
2023-06-02T00:39:47.252Z,15.15
2023-06-02T00:42:49.816Z,15.08
2023-06-02T00:45:52.081Z,15.05
2023-06-02T00:48:54.352Z,15.17
2023-06-02T00:51:56.617Z,14.80
2023-06-02T00:54:59.228Z,14.67
2023-06-02T00:58:04.883Z,14.77
2023-06-02T01:01:11.700Z,14.80
2023-06-02T01:04:14.871Z,14.77
2023-06-02T01:07:24.555Z,14.77
2023-06-02T01:10:27.293Z,14.65
2023-06-02T01:13:29.591Z,14.50
2023-06-02T01:16:33.966Z,14.62
2023-06-02T01:19:39.433Z,14.72
2023-06-02T01:23:07.473Z,14.63
2023-06-02T01:26:10.493Z,14.55
2023-06-02T01:29:13.329Z,14.44
2023-06-02T01:32:26.590Z,14.46
2023-06-02T01:35:31.900Z,14.37
2023-06-02T01:38:35.914Z,14.42
2023-06-02T01:41:41.795Z,14.43
2023-06-02T01:44:44.369Z,14.43
2023-06-02T01:47:46.600Z,14.38
2023-06-02T01:50:48.876Z,14.34
2023-06-02T01:53:51.137Z,14.46
2023-06-02T01:56:53.412Z,14.32
2023-06-02T01:59:55.663Z,14.23
2023-06-02T02:02:58.805Z,14.14
2023-06-02T02:06:01.415Z,14.21
2023-06-02T02:09:05.058Z,14.12
2023-06-02T02:12:07.628Z,14.15
2023-06-02T02:15:10.767Z,14.18
2023-06-02T02:18:13.440Z,14.04
2023-06-02T02:21:15.702Z,14.07
2023-06-02T02:24:18.110Z,14.09
2023-06-02T02:27:20.345Z,14.17
2023-06-02T02:30:22.763Z,14.16
2023-06-02T02:33:25.006Z,14.11
2023-06-02T02:36:27.235Z,14.01
2023-06-02T02:39:30.296Z,14.01
2023-06-02T02:42:35.794Z,13.95
2023-06-02T02:45:38.252Z,13.86
2023-06-02T02:48:40.541Z,14.00
2023-06-02T02:51:42.791Z,13.91
2023-06-02T02:54:45.091Z,13.79
2023-06-02T02:57:47.342Z,13.86
2023-06-02T03:00:49.643Z,13.86
2023-06-02T03:03:52.538Z,13.75
2023-06-02T03:06:56.051Z,13.77
2023-06-02T03:09:58.765Z,14.03
2023-06-02T03:13:01.111Z,13.96
2023-06-02T03:16:04.294Z,13.88
2023-06-02T03:19:07.543Z,13.96
2023-06-02T03:22:09.812Z,14.01
2023-06-02T03:25:12.057Z,14.00
2023-06-02T03:28:14.359Z,14.09
2023-06-02T03:31:16.587Z,14.23
2023-06-02T03:34:19.003Z,14.42
2023-06-02T03:37:21.237Z,14.47
2023-06-02T03:40:23.491Z,15.00
2023-06-02T03:43:25.710Z,15.67
2023-06-02T03:46:28.391Z,16.16
2023-06-02T03:49:30.938Z,16.75
2023-06-02T03:52:33.145Z,17.45
2023-06-02T03:55:35.716Z,17.82
2023-06-02T03:58:37.941Z,18.38
2023-06-02T04:01:42.742Z,18.65
2023-06-02T04:04:45.080Z,19.35
2023-06-02T04:07:47.779Z,19.36
2023-06-02T04:10:50.088Z,20.75
2023-06-02T04:13:52.293Z,20.59
2023-06-02T04:16:55.314Z,20.84
2023-06-02T04:19:57.761Z,20.81
2023-06-02T04:23:00.037Z,21.47
2023-06-02T04:26:02.446Z,21.92
2023-06-02T04:29:04.803Z,22.95
2023-06-02T04:32:07.985Z,22.70
2023-06-02T04:35:10.607Z,22.44
2023-06-02T04:38:13.282Z,22.88
2023-06-02T04:41:16.129Z,22.50
2023-06-02T04:44:18.399Z,22.86
2023-06-02T04:47:20.965Z,22.97
2023-06-02T04:50:23.414Z,22.50
2023-06-02T04:53:25.617Z,23.08
2023-06-02T04:56:28.514Z,23.04
2023-06-02T04:59:30.766Z,22.74
2023-06-02T05:02:33.117Z,22.79
2023-06-02T05:05:35.397Z,22.43
2023-06-02T05:08:37.744Z,22.76
2023-06-02T05:11:40.867Z,22.65
2023-06-02T05:14:43.756Z,23.14
2023-06-02T05:17:46.039Z,23.35
2023-06-02T05:20:48.621Z,23.59
2023-06-02T05:23:50.872Z,24.39
2023-06-02T05:26:53.086Z,24.65
2023-06-02T05:29:55.356Z,24.25
2023-06-02T05:32:57.586Z,24.19
2023-06-02T05:35:59.930Z,23.89
2023-06-02T05:39:02.270Z,23.94
2023-06-02T05:42:04.758Z,24.52
2023-06-02T05:45:07.740Z,24.68
2023-06-02T05:48:10.049Z,24.41
2023-06-02T05:51:12.314Z,24.46
2023-06-02T05:54:14.622Z,23.59
2023-06-02T05:57:18.632Z,22.81
2023-06-02T06:00:21.535Z,22.88
2023-06-02T06:03:24.266Z,23.66
2023-06-02T06:06:26.710Z,24.18
2023-06-02T06:09:29.064Z,24.62
2023-06-02T06:12:31.299Z,25.34
2023-06-02T06:15:33.569Z,25.14
2023-06-02T06:18:35.902Z,24.98
2023-06-02T06:21:38.853Z,24.97
2023-06-02T06:24:41.113Z,24.89
2023-06-02T06:27:43.396Z,24.69
2023-06-02T06:30:46.684Z,24.91
2023-06-02T06:33:48.980Z,25.25
2023-06-02T06:36:51.230Z,24.52
2023-06-02T06:39:53.460Z,24.62
2023-06-02T06:42:55.799Z,23.69
2023-06-02T06:45:58.066Z,23.48
2023-06-02T06:49:00.533Z,23.58
2023-06-02T06:52:02.770Z,24.36
2023-06-02T06:55:06.241Z,24.35
2023-06-02T06:58:08.470Z,24.12
2023-06-02T07:01:11.678Z,24.71
2023-06-02T07:04:14.592Z,25.11
2023-06-02T07:07:17.111Z,25.60
2023-06-02T07:10:19.493Z,25.98
2023-06-02T07:13:21.777Z,26.27
2023-06-02T07:16:24.008Z,26.40
2023-06-02T07:19:26.506Z,26.62
2023-06-02T07:22:28.949Z,25.78
2023-06-02T07:25:31.304Z,26.06
2023-06-02T07:31:40.940Z,26.53
2023-06-02T07:34:43.174Z,26.48
2023-06-02T07:37:45.463Z,26.51
2023-06-02T07:40:47.662Z,26.80
2023-06-02T07:43:49.897Z,26.80
2023-06-02T07:46:52.240Z,26.87
2023-06-02T07:49:54.621Z,26.77
2023-06-02T07:52:57.029Z,27.04
2023-06-02T07:55:59.666Z,26.26
2023-06-02T07:59:01.966Z,26.26
2023-06-02T08:02:04.876Z,26.32
2023-06-02T08:05:08.034Z,26.23
2023-06-02T08:08:10.888Z,26.43
2023-06-02T08:11:13.753Z,26.56
2023-06-02T08:14:16.204Z,26.35
2023-06-02T08:17:18.434Z,26.10
2023-06-02T08:20:20.791Z,26.98
2023-06-02T08:23:23.038Z,26.70
2023-06-02T08:26:25.360Z,26.06
2023-06-02T08:29:28.190Z,26.41
2023-06-02T08:32:33.755Z,26.71
2023-06-02T08:35:39.370Z,26.95
2023-06-02T08:38:41.772Z,27.04
2023-06-02T08:41:47.395Z,27.03
2023-06-02T08:44:49.902Z,25.78
2023-06-02T08:47:57.406Z,26.22
2023-06-02T08:51:02.476Z,27.01
2023-06-02T08:54:06.915Z,27.06
2023-06-02T08:57:10.847Z,26.80
2023-06-02T09:00:13.762Z,26.42
2023-06-02T09:06:27.949Z,26.98
2023-06-02T09:09:43.094Z,27.60
2023-06-02T09:12:49.298Z,25.98
2023-06-02T09:15:59.372Z,25.62
2023-06-02T09:19:02.115Z,25.95
2023-06-02T09:22:08.447Z,26.26
2023-06-02T09:25:21.893Z,26.37
2023-06-02T09:28:25.483Z,26.15
2023-06-02T09:31:30.778Z,25.85
2023-06-02T09:34:37.058Z,25.56
2023-06-02T09:37:54.677Z,25.80
2023-06-02T09:40:58.589Z,25.84
2023-06-02T09:44:01.176Z,25.77
2023-06-02T09:47:04.987Z,26.04
2023-06-02T09:50:07.917Z,26.80
2023-06-02T09:53:12.468Z,26.44
2023-06-02T09:56:15.912Z,27.05
2023-06-02T09:59:18.829Z,27.32
2023-06-02T10:02:21.286Z,27.69
2023-06-02T10:05:24.214Z,28.14
2023-06-02T10:08:37.617Z,28.18
2023-06-02T10:12:09.251Z,28.63
2023-06-02T10:15:20.108Z,28.77
2023-06-02T10:18:34.891Z,27.83
2023-06-02T10:22:08.811Z,26.85
2023-06-02T10:25:11.120Z,25.42
2023-06-02T10:28:13.908Z,25.42
2023-06-02T10:31:16.420Z,25.18
2023-06-02T10:34:38.655Z,25.24
2023-06-02T10:37:41.715Z,25.11
2023-06-02T10:40:51.403Z,24.93
2023-06-02T10:44:25.431Z,24.79
2023-06-02T10:47:30.636Z,24.72
2023-06-02T10:50:53.047Z,24.57
2023-06-02T10:54:05.561Z,24.10
2023-06-02T10:57:08.344Z,23.74
2023-06-02T11:00:47.047Z,23.93
2023-06-02T11:03:49.694Z,23.60
2023-06-02T11:07:11.184Z,23.51
2023-06-02T11:10:42.333Z,23.53
2023-06-02T11:14:04.806Z,24.00
2023-06-02T11:17:33.766Z,24.32
2023-06-02T11:20:36.808Z,24.72
2023-06-02T11:23:42.520Z,25.29
2023-06-02T11:26:48.641Z,25.40
2023-06-02T11:30:12.010Z,25.97
2023-06-02T11:33:14.261Z,26.33
2023-06-02T11:36:27.043Z,26.55
2023-06-02T11:39:29.226Z,26.84
2023-06-02T11:42:36.213Z,27.29
2023-06-02T11:45:39.548Z,27.69
2023-06-02T11:48:42.111Z,27.52
2023-06-02T11:51:44.543Z,27.11
2023-06-02T11:54:54.257Z,26.68
2023-06-02T11:58:19.733Z,26.15
2023-06-02T12:01:26.374Z,25.80
2023-06-02T12:04:28.721Z,25.57
2023-06-02T12:07:31.161Z,25.43
2023-06-02T12:10:33.568Z,25.46
2023-06-02T12:13:35.993Z,25.87
2023-06-02T12:16:43.525Z,25.69
2023-06-02T12:19:57.079Z,25.48
2023-06-02T12:22:59.331Z,24.85
2023-06-02T12:26:01.555Z,24.42
2023-06-02T12:29:04.531Z,24.13
2023-06-02T12:32:08.456Z,23.97
2023-06-02T12:35:11.058Z,23.74
2023-06-02T12:38:14.395Z,23.64
2023-06-02T12:41:16.586Z,23.61
2023-06-02T12:44:19.198Z,23.99
2023-06-02T12:47:22.648Z,24.03
2023-06-02T12:50:25.524Z,24.40
2023-06-02T12:53:27.856Z,24.62
2023-06-02T12:56:32.571Z,24.96
2023-06-02T12:59:35.655Z,25.21
2023-06-02T13:02:38.136Z,25.44
2023-06-02T13:05:40.541Z,25.54
2023-06-02T13:08:42.789Z,25.89
2023-06-02T13:11:47.837Z,26.22
2023-06-02T13:14:50.067Z,26.32
2023-06-02T13:17:52.380Z,26.34
2023-06-02T13:20:57.943Z,26.60
2023-06-02T13:24:00.322Z,26.92
2023-06-02T13:27:02.544Z,26.76
2023-06-02T13:30:05.558Z,26.71
2023-06-02T13:33:08.359Z,26.80
2023-06-02T13:36:10.729Z,27.06
2023-06-02T13:39:13.983Z,26.98
2023-06-02T13:42:16.637Z,27.07
2023-06-02T13:45:18.932Z,26.68
2023-06-02T13:48:21.197Z,26.75
2023-06-02T13:51:23.422Z,26.97
2023-06-02T13:54:25.818Z,27.26
2023-06-02T13:57:28.078Z,27.48
2023-06-02T14:00:30.319Z,27.40
2023-06-02T14:03:32.742Z,27.38
2023-06-02T14:06:36.703Z,27.22
2023-06-02T14:09:39.046Z,27.17
2023-06-02T14:12:41.401Z,27.34
2023-06-02T14:15:43.856Z,27.04
2023-06-02T14:18:46.083Z,26.93
2023-06-02T14:21:48.371Z,26.83
2023-06-02T14:24:50.673Z,26.87
2023-06-02T14:27:52.900Z,27.12
2023-06-02T14:30:55.179Z,27.07
2023-06-02T14:33:57.466Z,27.31
2023-06-02T14:36:59.735Z,27.18
2023-06-02T14:40:02.074Z,26.84
2023-06-02T14:43:05.596Z,27.09
2023-06-02T14:46:10.094Z,27.34
2023-06-02T14:49:12.589Z,26.78
2023-06-02T14:52:14.914Z,26.48
2023-06-02T14:55:17.766Z,26.69
2023-06-02T14:58:20.274Z,26.36
2023-06-02T15:01:23.030Z,26.62
2023-06-02T15:04:25.834Z,26.69
2023-06-02T15:07:28.151Z,26.57
2023-06-02T15:10:32.132Z,26.69
2023-06-02T15:13:34.440Z,26.65
2023-06-02T15:16:36.780Z,26.55
2023-06-02T15:19:39.350Z,26.69
2023-06-02T15:22:42.526Z,26.86
2023-06-02T15:25:45.416Z,26.89
2023-06-02T15:28:48.030Z,26.57
2023-06-02T15:31:50.477Z,26.52
2023-06-02T15:34:52.705Z,26.32
2023-06-02T15:37:54.941Z,26.35
2023-06-02T15:40:57.199Z,26.10
2023-06-02T15:43:59.432Z,26.00
2023-06-02T15:47:01.802Z,26.09
2023-06-02T15:50:04.498Z,26.03
2023-06-02T15:53:07.087Z,25.98
2023-06-02T15:56:10.117Z,25.98
2023-06-02T15:59:12.341Z,26.08
2023-06-02T16:02:14.847Z,26.13
2023-06-02T16:05:17.495Z,26.07
2023-06-02T16:08:19.730Z,25.94
2023-06-02T16:11:22.679Z,25.81
2023-06-02T16:14:24.950Z,25.75
2023-06-02T16:17:27.349Z,25.58
2023-06-02T16:20:29.787Z,25.56
2023-06-02T16:23:32.108Z,25.46
2023-06-02T16:26:34.732Z,25.45
2023-06-02T16:29:38.037Z,25.40
2023-06-02T16:32:40.489Z,25.26
2023-06-02T16:35:42.870Z,25.15
2023-06-02T16:38:45.124Z,25.10
2023-06-02T16:41:47.532Z,24.96
2023-06-02T16:44:54.222Z,24.95
2023-06-02T16:47:57.521Z,24.93
2023-06-02T16:50:59.792Z,24.85
2023-06-02T16:54:02.000Z,24.84
2023-06-02T16:57:04.545Z,24.81
2023-06-02T17:00:09.154Z,24.66
2023-06-02T17:03:11.969Z,24.64
2023-06-02T17:06:14.294Z,24.52
2023-06-02T17:09:17.439Z,24.41
2023-06-02T17:12:19.778Z,24.35
2023-06-02T17:15:22.003Z,24.36
2023-06-02T17:18:24.240Z,24.35
2023-06-02T17:21:29.520Z,24.13
2023-06-02T17:24:31.819Z,24.12
2023-06-02T17:27:34.550Z,23.95
2023-06-02T17:30:37.679Z,23.95
2023-06-02T17:33:40.009Z,23.77
2023-06-02T17:36:43.929Z,23.73
2023-06-02T17:39:46.766Z,23.64
2023-06-02T17:42:49.463Z,23.62
2023-06-02T17:45:51.704Z,23.43
2023-06-02T17:48:54.251Z,23.27
2023-06-02T17:51:56.564Z,23.23
2023-06-02T17:54:59.182Z,23.20
2023-06-02T17:58:03.933Z,23.09
2023-06-02T18:01:06.585Z,23.00
2023-06-02T18:04:09.133Z,22.82
2023-06-02T18:07:11.470Z,22.82
2023-06-02T18:10:13.825Z,22.69
2023-06-02T18:13:16.126Z,22.61
2023-06-02T18:16:18.458Z,22.54
2023-06-02T18:19:21.364Z,22.47
2023-06-02T18:22:23.608Z,22.40
2023-06-02T18:25:26.026Z,22.11
2023-06-02T18:28:28.255Z,22.03
2023-06-02T18:31:30.541Z,21.99
2023-06-02T18:34:32.806Z,21.90
2023-06-02T18:37:36.655Z,21.78
2023-06-02T18:40:39.523Z,21.79
2023-06-02T18:43:42.084Z,21.66
2023-06-02T18:46:44.676Z,21.51
2023-06-02T18:49:47.221Z,21.39
2023-06-02T18:52:49.455Z,21.19
2023-06-02T18:55:51.783Z,21.09
2023-06-02T18:58:54.181Z,21.02
2023-06-02T19:01:56.569Z,21.08
2023-06-02T19:04:59.064Z,20.92
2023-06-02T19:08:01.723Z,20.89
2023-06-02T19:11:04.121Z,20.71
2023-06-02T19:14:09.031Z,20.54
2023-06-02T19:17:12.156Z,20.52
2023-06-02T19:20:14.664Z,20.25
2023-06-02T19:23:17.554Z,20.11
2023-06-02T19:26:25.676Z,19.72
2023-06-02T19:29:28.124Z,19.70
2023-06-02T19:32:31.387Z,19.61
2023-06-02T19:35:36.569Z,19.52
2023-06-02T19:38:38.899Z,19.41
2023-06-02T19:41:41.641Z,19.26
2023-06-02T19:44:47.327Z,19.11
2023-06-02T19:47:49.854Z,18.75
2023-06-02T19:50:52.103Z,18.92
2023-06-02T19:53:54.396Z,18.98
2023-06-02T19:56:56.626Z,18.68
2023-06-02T19:59:58.883Z,18.83
2023-06-02T20:03:01.244Z,18.67
2023-06-02T20:06:03.805Z,18.65
2023-06-02T20:09:08.085Z,18.67
2023-06-02T20:12:10.406Z,18.68
2023-06-02T20:15:12.925Z,18.47
2023-06-02T20:18:15.235Z,18.46
2023-06-02T20:21:17.667Z,18.51
2023-06-02T20:24:19.918Z,18.58
2023-06-02T20:27:22.203Z,18.55
2023-06-02T20:30:24.576Z,18.55
2023-06-02T20:33:26.827Z,18.88
2023-06-02T20:36:29.088Z,18.79
2023-06-02T20:39:31.330Z,18.82
2023-06-02T20:42:33.653Z,18.88
2023-06-02T20:45:36.018Z,18.90
2023-06-02T20:48:38.308Z,18.86
2023-06-02T20:51:41.788Z,18.83
2023-06-02T20:54:44.158Z,18.75
2023-06-02T20:57:46.365Z,18.67
2023-06-02T21:00:48.817Z,18.65
2023-06-02T21:03:51.582Z,18.34
2023-06-02T21:06:53.898Z,18.14
2023-06-02T21:09:56.208Z,17.97
2023-06-02T21:12:58.889Z,17.77
2023-06-02T21:16:01.393Z,17.76
2023-06-02T21:19:04.063Z,17.84
2023-06-02T21:22:06.513Z,17.44
2023-06-02T21:25:09.234Z,17.13
2023-06-02T21:28:11.504Z,17.15
2023-06-02T21:31:13.795Z,17.41
2023-06-02T21:34:16.036Z,17.28
2023-06-02T21:37:18.379Z,16.73
2023-06-02T21:40:20.842Z,16.73
2023-06-02T21:43:23.200Z,16.42
2023-06-02T21:46:25.593Z,16.44
2023-06-02T21:49:27.863Z,16.40
2023-06-02T21:52:30.133Z,16.13
2023-06-02T21:55:32.448Z,16.23
2023-06-02T21:58:35.719Z,16.41
2023-06-02T22:01:38.052Z,16.20
2023-06-02T22:04:40.356Z,16.37
2023-06-02T22:07:42.566Z,16.23
2023-06-02T22:10:44.831Z,16.44
2023-06-02T22:13:47.535Z,16.29
2023-06-02T22:16:49.878Z,16.26
2023-06-02T22:19:52.142Z,15.66
2023-06-02T22:22:54.354Z,15.71
2023-06-02T22:25:56.759Z,15.70
2023-06-02T22:28:59.017Z,15.64
2023-06-02T22:32:01.430Z,15.61
2023-06-02T22:35:04.026Z,15.62
2023-06-02T22:38:06.285Z,15.32
2023-06-02T22:41:08.536Z,15.21
2023-06-02T22:44:10.999Z,15.32
2023-06-02T22:47:13.241Z,15.42
2023-06-02T22:50:15.909Z,15.48
2023-06-02T22:53:18.113Z,15.37
2023-06-02T22:56:20.780Z,15.36
2023-06-02T22:59:23.164Z,15.11
2023-06-02T23:02:25.508Z,15.12
2023-06-02T23:05:27.834Z,14.93
2023-06-02T23:08:30.599Z,15.06
2023-06-02T23:11:32.859Z,15.08
2023-06-02T23:14:35.092Z,15.11
2023-06-02T23:17:38.016Z,15.13
2023-06-02T23:20:40.334Z,15.13
2023-06-02T23:23:42.655Z,15.20
2023-06-02T23:26:44.959Z,15.25
2023-06-02T23:29:47.294Z,15.31
2023-06-02T23:32:49.583Z,15.36
2023-06-02T23:35:51.833Z,15.19
2023-06-02T23:38:54.066Z,15.39
2023-06-02T23:41:56.417Z,15.46
2023-06-02T23:44:58.650Z,15.54
2023-06-02T23:48:03.448Z,15.52
2023-06-02T23:51:09.372Z,15.23
2023-06-02T23:54:12.165Z,15.19
2023-06-02T23:57:14.545Z,15.25
